createdAt,value
2017-07-19T00:00:59.173Z,7.77
2017-07-19T00:03:28.401Z,7.20
2017-07-19T00:05:57.376Z,8.03
2017-07-19T00:08:26.328Z,8.10
2017-07-19T00:10:56.205Z,9.57
2017-07-19T00:13:25.152Z,8.07
2017-07-19T00:15:54.887Z,9.70
2017-07-19T00:18:23.916Z,7.10
2017-07-19T00:20:52.875Z,8.13
2017-07-19T00:23:21.842Z,7.77
2017-07-19T00:25:50.796Z,8.83
2017-07-19T00:28:19.759Z,15.10
2017-07-19T00:30:48.822Z,8.63
2017-07-19T00:33:17.948Z,9.60
2017-07-19T00:35:46.936Z,9.03
2017-07-19T00:38:15.920Z,8.50
2017-07-19T00:40:44.891Z,7.60
2017-07-19T00:43:13.851Z,10.10
2017-07-19T00:45:42.834Z,9.30
2017-07-19T00:48:11.810Z,8.87
2017-07-19T00:50:40.760Z,8.17
2017-07-19T00:53:10.488Z,8.13
2017-07-19T00:55:39.446Z,7.90
2017-07-19T00:58:08.430Z,8.37
2017-07-19T01:00:37.398Z,8.47
2017-07-19T01:03:06.359Z,12.67
2017-07-19T01:05:35.310Z,8.70
2017-07-19T01:08:04.289Z,8.83
2017-07-19T01:10:33.240Z,11.43
2017-07-19T01:13:02.229Z,13.00
2017-07-19T01:15:31.213Z,9.00
2017-07-19T01:18:00.383Z,7.70
2017-07-19T01:20:29.335Z,8.13
2017-07-19T01:22:58.268Z,8.33
2017-07-19T01:25:28.028Z,8.90
2017-07-19T01:27:57.010Z,7.63
2017-07-19T01:30:26.085Z,8.73
2017-07-19T01:32:55.042Z,9.80
2017-07-19T01:35:23.987Z,7.87
2017-07-19T01:37:52.960Z,8.67
2017-07-19T01:40:21.903Z,7.23
2017-07-19T01:42:50.883Z,8.73
2017-07-19T01:45:19.938Z,8.00
2017-07-19T01:47:48.894Z,9.17
2017-07-19T01:50:17.851Z,8.20
2017-07-19T01:52:46.898Z,9.77
2017-07-19T01:55:15.882Z,15.03
2017-07-19T01:57:44.831Z,8.70
2017-07-19T02:00:13.776Z,9.30
2017-07-19T02:02:43.520Z,7.43
2017-07-19T02:05:12.473Z,6.97
2017-07-19T02:07:42.217Z,7.23
2017-07-19T02:10:11.189Z,7.03
2017-07-19T02:12:40.938Z,7.47
2017-07-19T02:15:09.942Z,8.40
2017-07-19T02:17:38.877Z,7.43
2017-07-19T02:20:07.973Z,8.43
2017-07-19T02:22:37.680Z,8.10
2017-07-19T02:25:07.482Z,7.50
2017-07-19T02:27:36.441Z,7.93
2017-07-19T02:30:05.403Z,9.07
2017-07-19T02:32:34.359Z,16.67
2017-07-19T02:35:03.306Z,11.67
2017-07-19T02:37:32.259Z,8.63
2017-07-19T02:40:01.334Z,11.80
2017-07-19T02:42:31.038Z,6.70
2017-07-19T02:45:00.779Z,7.57
2017-07-19T02:47:29.724Z,7.83
2017-07-19T02:49:58.702Z,7.20
2017-07-19T02:52:27.655Z,10.97
2017-07-19T02:54:56.637Z,13.80
2017-07-19T02:57:25.589Z,8.83
2017-07-19T02:59:54.560Z,10.30
2017-07-19T03:02:23.518Z,9.03
2017-07-19T03:04:52.490Z,10.50
2017-07-19T03:07:22.242Z,7.53
2017-07-19T03:09:51.245Z,7.63
2017-07-19T03:12:20.255Z,9.03
2017-07-19T03:14:49.209Z,7.30
2017-07-19T03:17:18.214Z,10.53
2017-07-19T03:19:47.204Z,8.10
2017-07-19T03:22:28.016Z,7.83
2017-07-19T03:24:57.782Z,8.93
2017-07-19T03:27:26.771Z,8.33
2017-07-19T03:29:55.739Z,10.77
2017-07-19T03:32:24.707Z,7.73
2017-07-19T03:34:54.437Z,7.93
2017-07-19T03:37:23.410Z,8.00
2017-07-19T03:39:53.118Z,7.80
2017-07-19T03:42:22.871Z,7.40
2017-07-19T03:44:51.920Z,7.87
2017-07-19T03:47:21.818Z,8.87
2017-07-19T03:49:51.287Z,11.00
2017-07-19T03:52:20.258Z,11.03
2017-07-19T03:54:49.423Z,11.30
2017-07-19T03:57:18.378Z,13.47
2017-07-19T03:59:47.423Z,8.87
2017-07-19T04:02:17.159Z,7.60
2017-07-19T04:04:46.107Z,9.37
2017-07-19T04:07:15.115Z,7.90
2017-07-19T04:09:44.837Z,9.27
2017-07-19T04:12:13.792Z,8.20
2017-07-19T04:14:42.732Z,8.37
2017-07-19T04:17:11.718Z,8.17
2017-07-19T04:19:40.672Z,9.03
2017-07-19T04:22:09.845Z,11.67
2017-07-19T04:24:38.822Z,9.10
2017-07-19T04:27:07.795Z,7.60
2017-07-19T04:29:36.855Z,8.03
2017-07-19T04:32:05.832Z,9.00
2017-07-19T04:34:34.795Z,9.67
2017-07-19T04:37:03.806Z,8.87
2017-07-19T04:39:32.821Z,9.13
2017-07-19T04:42:01.768Z,10.73
2017-07-19T04:44:31.046Z,8.53
2017-07-19T04:46:59.990Z,6.97
2017-07-19T04:49:28.999Z,11.03
2017-07-19T04:51:58.015Z,9.60
2017-07-19T04:54:26.971Z,8.20
2017-07-19T04:56:55.931Z,8.50
2017-07-19T04:59:24.921Z,7.73
2017-07-19T05:01:53.972Z,8.33
2017-07-19T05:04:22.949Z,6.23
2017-07-19T05:06:52.105Z,11.90
2017-07-19T05:09:21.078Z,6.83
2017-07-19T05:11:50.051Z,8.63
2017-07-19T05:14:19.023Z,7.17
2017-07-19T05:16:48.732Z,6.87
2017-07-19T05:19:18.574Z,6.20
2017-07-19T05:21:47.510Z,6.43
2017-07-19T05:24:16.499Z,8.27
2017-07-19T05:26:45.446Z,6.53
2017-07-19T05:29:14.543Z,6.07
2017-07-19T05:31:43.505Z,6.33
2017-07-19T05:34:12.497Z,6.67
2017-07-19T05:36:42.212Z,8.43
2017-07-19T05:39:11.958Z,6.10
2017-07-19T05:41:40.900Z,6.13
2017-07-19T05:44:10.628Z,5.60
2017-07-19T05:46:39.563Z,6.30
2017-07-19T05:49:08.668Z,7.60
2017-07-19T05:51:37.652Z,7.80
2017-07-19T05:54:06.600Z,5.83
2017-07-19T05:56:36.307Z,8.00
2017-07-19T05:59:06.017Z,5.50
2017-07-19T06:01:35.012Z,6.00
2017-07-19T06:04:04.193Z,7.73
2017-07-19T06:06:34.590Z,6.00
2017-07-19T06:09:03.534Z,8.37
2017-07-19T06:11:32.501Z,6.67
2017-07-19T06:14:01.565Z,10.23
2017-07-19T06:16:30.544Z,9.97
2017-07-19T06:18:59.489Z,8.07
2017-07-19T06:21:28.445Z,7.03
2017-07-19T06:23:57.424Z,5.90
2017-07-19T06:26:26.375Z,4.80
2017-07-19T06:28:55.348Z,5.77
2017-07-19T06:31:24.335Z,6.53
2017-07-19T06:33:54.073Z,5.77
2017-07-19T06:36:23.016Z,8.73
2017-07-19T06:38:52.007Z,6.20
2017-07-19T06:41:21.021Z,5.50
2017-07-19T06:43:50.752Z,6.87
2017-07-19T06:46:19.710Z,6.87
2017-07-19T06:48:48.697Z,6.03
2017-07-19T06:51:17.649Z,6.30
2017-07-19T06:53:46.762Z,9.70
2017-07-19T06:56:15.892Z,5.33
2017-07-19T06:58:45.625Z,6.90
2017-07-19T07:01:14.572Z,5.90
2017-07-19T07:03:43.581Z,7.47
2017-07-19T07:06:12.558Z,6.00
2017-07-19T07:08:42.414Z,7.37
2017-07-19T07:11:11.457Z,9.30
2017-07-19T07:13:40.405Z,9.17
2017-07-19T07:16:09.398Z,6.00
2017-07-19T07:18:38.351Z,5.27
2017-07-19T07:21:07.390Z,6.70
2017-07-19T07:23:36.341Z,5.60
2017-07-19T07:26:05.285Z,5.50
2017-07-19T07:28:34.259Z,7.10
2017-07-19T07:31:03.174Z,5.47
2017-07-19T07:33:32.169Z,6.80
2017-07-19T07:36:01.115Z,5.83
2017-07-19T07:38:30.083Z,6.13
2017-07-19T07:40:59.069Z,7.80
2017-07-19T07:43:28.011Z,11.10
2017-07-19T07:45:56.997Z,7.03
2017-07-19T07:48:25.981Z,7.20
2017-07-19T07:50:54.965Z,6.40
2017-07-19T07:53:24.674Z,5.23
2017-07-19T07:55:53.636Z,7.00
2017-07-19T07:58:22.644Z,7.37
2017-07-19T08:00:52.373Z,5.97
2017-07-19T08:03:21.323Z,5.03
2017-07-19T08:05:50.339Z,7.40
2017-07-19T08:08:20.042Z,5.20
2017-07-19T08:10:49.818Z,5.33
2017-07-19T08:13:18.757Z,5.37
2017-07-19T08:15:48.489Z,6.10
2017-07-19T08:18:17.427Z,6.00
2017-07-19T08:20:46.401Z,6.47
2017-07-19T08:23:15.344Z,6.40
2017-07-19T08:25:44.845Z,5.90
2017-07-19T08:28:14.563Z,5.83
2017-07-19T08:30:43.572Z,7.57
2017-07-19T08:33:12.519Z,6.20
2017-07-19T08:35:42.341Z,6.10
2017-07-19T08:38:12.093Z,6.53
2017-07-19T08:40:41.038Z,7.60
2017-07-19T08:43:09.990Z,5.90
2017-07-19T08:45:39.535Z,5.73
2017-07-19T08:48:09.353Z,5.97
2017-07-19T08:50:38.319Z,6.40
2017-07-19T08:53:07.358Z,9.60
2017-07-19T08:55:37.877Z,8.20
2017-07-19T08:58:06.851Z,7.80
2017-07-19T09:00:35.851Z,5.00
2017-07-19T09:03:04.834Z,7.10
2017-07-19T09:05:33.865Z,5.47
2017-07-19T09:08:02.839Z,7.57
2017-07-19T09:10:31.848Z,6.90
2017-07-19T09:13:00.840Z,6.13
2017-07-19T09:15:29.839Z,5.70
2017-07-19T09:17:59.101Z,6.03
2017-07-19T09:20:28.892Z,13.67
2017-07-19T09:22:58.150Z,5.90
2017-07-19T09:25:27.141Z,5.83
2017-07-19T09:27:56.133Z,6.27
2017-07-19T09:30:25.104Z,7.53
2017-07-19T09:32:54.074Z,6.00
2017-07-19T09:35:23.824Z,6.63
2017-07-19T09:37:52.774Z,6.17
2017-07-19T09:40:23.359Z,5.73
2017-07-19T09:42:52.378Z,6.17
2017-07-19T09:45:21.359Z,5.30
2017-07-19T09:47:50.385Z,4.80
2017-07-19T09:50:19.349Z,4.37
2017-07-19T09:52:48.316Z,5.10
2017-07-19T09:55:17.994Z,6.43
2017-07-19T09:57:47.073Z,5.37
2017-07-19T10:00:16.084Z,6.10
2017-07-19T10:02:48.034Z,5.03
2017-07-19T10:05:17.024Z,5.40
2017-07-19T10:07:46.509Z,4.27
2017-07-19T10:10:15.473Z,5.33
2017-07-19T10:12:44.493Z,4.90
2017-07-19T10:15:13.841Z,5.37
2017-07-19T10:17:42.945Z,6.20
2017-07-19T10:20:12.732Z,4.70
2017-07-19T10:22:41.738Z,5.30
2017-07-19T10:25:10.929Z,5.10
2017-07-19T10:27:39.906Z,7.23
2017-07-19T10:30:08.840Z,5.00
2017-07-19T10:32:37.864Z,5.00
2017-07-19T10:35:06.857Z,5.60
2017-07-19T10:37:35.800Z,5.80
2017-07-19T10:40:04.763Z,6.83
2017-07-19T10:42:33.791Z,5.33
2017-07-19T10:45:02.772Z,5.33
2017-07-19T10:47:31.786Z,5.30
2017-07-19T10:50:01.274Z,5.47
2017-07-19T10:52:30.300Z,5.60
2017-07-19T10:54:59.350Z,5.30
2017-07-19T10:57:29.860Z,6.50
2017-07-19T10:59:58.964Z,5.33
2017-07-19T11:02:28.060Z,6.20
2017-07-19T11:04:57.342Z,5.23
2017-07-19T11:07:26.403Z,5.53
2017-07-19T11:09:55.366Z,8.47
2017-07-19T11:12:24.446Z,5.43
2017-07-19T11:14:53.404Z,5.40
2017-07-19T11:17:22.400Z,5.33
2017-07-19T11:19:52.193Z,6.20
2017-07-19T11:22:21.180Z,7.43
2017-07-19T11:24:50.178Z,5.37
2017-07-19T11:27:20.050Z,5.53
2017-07-19T11:29:49.064Z,5.73
2017-07-19T11:32:18.020Z,6.80
2017-07-19T11:34:46.990Z,5.87
2017-07-19T11:37:16.029Z,4.90
2017-07-19T11:39:45.028Z,5.67
2017-07-19T11:42:14.005Z,4.93
2017-07-19T11:44:42.997Z,5.40
2017-07-19T11:47:12.039Z,6.43
2017-07-19T11:49:41.059Z,5.10
2017-07-19T11:52:10.844Z,5.87
2017-07-19T11:54:39.904Z,5.90
2017-07-19T11:57:08.862Z,5.70
2017-07-19T11:59:37.886Z,6.13
2017-07-19T12:02:06.918Z,5.50
2017-07-19T12:04:35.894Z,6.17
2017-07-19T12:07:05.568Z,5.37
2017-07-19T12:09:34.577Z,5.83
2017-07-19T12:12:03.587Z,5.77
2017-07-19T12:14:32.632Z,5.73
2017-07-19T12:17:01.634Z,5.27
2017-07-19T12:19:31.577Z,6.53
2017-07-19T12:22:00.597Z,5.10
2017-07-19T12:24:30.361Z,4.90
2017-07-19T12:27:00.750Z,5.70
2017-07-19T12:29:29.735Z,6.40
2017-07-19T12:31:59.567Z,4.83
2017-07-19T12:34:28.576Z,4.87
2017-07-19T12:36:57.553Z,5.57
2017-07-19T12:39:26.576Z,6.27
2017-07-19T12:41:55.580Z,5.40
2017-07-19T12:44:24.628Z,5.30
2017-07-19T12:46:53.596Z,6.70
2017-07-19T12:49:22.562Z,6.03
2017-07-19T12:51:51.568Z,5.20
2017-07-19T12:54:21.305Z,5.60
2017-07-19T12:56:50.341Z,5.27
2017-07-19T12:59:19.279Z,8.90
2017-07-19T13:01:49.100Z,5.70
2017-07-19T13:04:18.938Z,5.97
2017-07-19T13:06:47.963Z,5.57
2017-07-19T13:09:17.035Z,5.30
2017-07-19T13:11:46.004Z,5.10
2017-07-19T13:14:15.427Z,5.00
2017-07-19T13:16:44.420Z,5.23
2017-07-19T13:19:13.465Z,8.53
2017-07-19T13:21:42.495Z,4.90
2017-07-19T13:24:12.126Z,5.83
2017-07-19T13:26:41.362Z,4.77
2017-07-19T13:29:10.370Z,5.97
2017-07-19T13:31:40.103Z,6.57
2017-07-19T13:34:10.117Z,5.20
2017-07-19T13:36:41.098Z,4.90
2017-07-19T13:39:11.198Z,5.53
2017-07-19T13:41:40.266Z,6.97
2017-07-19T13:44:09.254Z,5.27
2017-07-19T13:46:38.227Z,4.97
2017-07-19T13:49:08.404Z,4.77
2017-07-19T13:51:37.398Z,5.77
2017-07-19T13:54:06.413Z,7.23
2017-07-19T13:56:35.425Z,5.43
2017-07-19T13:59:05.177Z,6.00
2017-07-19T14:01:34.200Z,5.30
2017-07-19T14:04:03.270Z,7.00
2017-07-19T14:06:32.899Z,5.57
2017-07-19T14:09:01.907Z,5.43
2017-07-19T14:11:30.871Z,5.13
2017-07-19T14:13:59.910Z,4.93
2017-07-19T14:16:29.696Z,5.43
2017-07-19T14:18:58.702Z,5.00
2017-07-19T14:21:27.688Z,5.40
2017-07-19T14:23:56.759Z,5.17
2017-07-19T14:26:25.754Z,8.03
2017-07-19T14:28:54.754Z,10.37
2017-07-19T14:31:23.744Z,6.00
2017-07-19T14:33:52.728Z,4.53
2017-07-19T14:36:21.676Z,6.17
2017-07-19T14:38:50.685Z,6.50
2017-07-19T14:41:19.693Z,6.10
2017-07-19T14:43:48.684Z,5.70
2017-07-19T14:46:18.547Z,5.93
2017-07-19T14:48:48.329Z,7.30
2017-07-19T14:51:17.356Z,6.37
2017-07-19T14:53:46.607Z,7.20
2017-07-19T14:56:15.590Z,5.93
2017-07-19T14:58:46.093Z,6.60
2017-07-19T15:01:15.085Z,5.97
2017-07-19T15:03:44.092Z,6.40
2017-07-19T15:06:13.068Z,5.37
2017-07-19T15:08:42.078Z,5.43
2017-07-19T15:11:11.109Z,5.53
2017-07-19T15:13:40.125Z,6.10
2017-07-19T15:16:09.127Z,5.80
2017-07-19T15:18:38.945Z,6.03
2017-07-19T15:21:07.963Z,6.10
2017-07-19T15:23:36.961Z,6.83
2017-07-19T15:26:05.979Z,6.60
2017-07-19T15:28:34.982Z,6.63
2017-07-19T15:31:04.018Z,6.03
2017-07-19T15:33:33.738Z,6.80
2017-07-19T15:36:02.699Z,6.07
2017-07-19T15:38:31.648Z,7.23
2017-07-19T15:41:00.619Z,5.93
2017-07-19T15:43:29.607Z,5.80
2017-07-19T15:45:58.573Z,5.80
2017-07-19T15:48:28.311Z,8.47
2017-07-19T15:50:57.396Z,6.33
2017-07-19T15:53:26.359Z,6.07
2017-07-19T15:55:55.528Z,6.30
2017-07-19T15:58:24.484Z,5.83
2017-07-19T16:00:53.417Z,6.00
2017-07-19T16:03:22.380Z,6.53
2017-07-19T16:05:51.358Z,6.40
2017-07-19T16:08:20.319Z,6.60
2017-07-19T16:10:49.349Z,5.93
2017-07-19T16:13:18.408Z,6.43
2017-07-19T16:18:12.139Z,5.50
2017-07-19T16:20:41.224Z,10.77
2017-07-19T16:23:10.836Z,5.80
2017-07-19T16:25:40.731Z,7.47
2017-07-19T16:28:10.935Z,7.47
2017-07-19T16:30:43.147Z,7.37
2017-07-19T16:33:12.131Z,6.30
2017-07-19T16:35:41.075Z,6.00
2017-07-19T16:38:10.043Z,6.03
2017-07-19T16:40:39.013Z,6.03
2017-07-19T16:43:08.143Z,6.23
2017-07-19T16:45:37.148Z,6.33
2017-07-19T16:48:06.140Z,8.20
2017-07-19T16:50:35.136Z,6.80
2017-07-19T16:53:04.097Z,6.70
2017-07-19T16:55:33.051Z,6.60
2017-07-19T16:58:02.014Z,8.37
2017-07-19T17:00:31.766Z,6.60
2017-07-19T17:03:00.732Z,9.10
2017-07-19T17:05:29.682Z,6.03
2017-07-19T17:07:58.699Z,6.87
2017-07-19T17:10:27.659Z,6.70
2017-07-19T17:12:56.658Z,6.83
2017-07-19T17:15:25.645Z,9.03
2017-07-19T17:17:54.626Z,6.10
2017-07-19T17:20:23.573Z,10.87
2017-07-19T17:22:52.532Z,11.83
2017-07-19T17:25:21.507Z,5.77
2017-07-19T17:27:50.496Z,10.93
2017-07-19T17:30:19.473Z,5.27
2017-07-19T17:32:48.419Z,5.50
2017-07-19T17:35:18.172Z,6.67
2017-07-19T17:37:47.118Z,7.20
2017-07-19T17:40:16.081Z,5.80
2017-07-19T17:42:45.049Z,10.80
2017-07-19T17:45:14.051Z,12.30
2017-07-19T17:47:43.007Z,14.03
2017-07-19T17:50:11.978Z,7.90
2017-07-19T17:52:41.722Z,16.67
2017-07-19T17:55:10.814Z,11.40
2017-07-19T17:57:39.776Z,8.80
2017-07-19T18:00:09.513Z,12.13
2017-07-19T18:02:38.469Z,10.73
2017-07-19T18:05:08.234Z,7.10
2017-07-19T18:07:37.223Z,13.90
2017-07-19T18:10:06.230Z,16.63
2017-07-19T18:12:35.187Z,9.07
2017-07-19T18:15:04.337Z,12.20
2017-07-19T18:17:33.694Z,11.07
2017-07-19T18:20:03.561Z,19.93
2017-07-19T18:22:32.510Z,11.03
2017-07-19T18:25:01.507Z,7.67
2017-07-19T18:27:30.570Z,9.90
2017-07-19T18:29:59.519Z,47.07
2017-07-19T18:32:28.493Z,16.27
2017-07-19T18:34:57.472Z,9.07
2017-07-19T18:37:26.586Z,10.83
2017-07-19T18:39:55.544Z,11.37
2017-07-19T18:42:24.514Z,10.93
2017-07-19T18:44:53.488Z,11.63
2017-07-19T18:47:23.292Z,18.63
2017-07-19T18:49:52.274Z,11.13
2017-07-19T18:52:21.277Z,13.87
2017-07-19T18:54:50.226Z,8.70
2017-07-19T18:57:19.217Z,10.07
2017-07-19T18:59:48.204Z,12.80
2017-07-19T19:02:17.200Z,19.03
2017-07-19T19:04:46.173Z,12.60
2017-07-19T19:07:17.296Z,11.53
2017-07-19T19:09:47.152Z,12.83
2017-07-19T19:12:16.239Z,13.43
2017-07-19T19:14:45.304Z,10.40
2017-07-19T19:17:14.263Z,11.57
2017-07-19T19:19:43.268Z,11.80
2017-07-19T19:22:12.245Z,11.10
2017-07-19T19:24:41.239Z,11.70
2017-07-19T19:27:10.433Z,12.03
2017-07-19T19:29:39.445Z,11.93
2017-07-19T19:32:09.213Z,11.67
2017-07-19T19:34:38.221Z,13.67
2017-07-19T19:37:07.203Z,12.00
2017-07-19T19:39:36.183Z,14.20
2017-07-19T19:42:05.167Z,12.40
2017-07-19T19:44:34.200Z,13.90
2017-07-19T19:47:03.194Z,13.33
2017-07-19T19:49:32.170Z,11.83
2017-07-19T19:52:01.173Z,13.03
2017-07-19T19:54:30.425Z,12.43
2017-07-19T19:56:59.420Z,12.87
2017-07-19T19:59:28.470Z,15.77
2017-07-19T20:01:57.514Z,14.90
2017-07-19T20:04:26.703Z,17.05
2017-07-19T20:06:56.887Z,16.47
2017-07-19T20:09:26.757Z,16.17
2017-07-19T20:11:55.887Z,15.30
2017-07-19T20:14:24.955Z,16.23
2017-07-19T20:16:54.084Z,17.13
2017-07-19T20:19:23.066Z,17.40
2017-07-19T20:21:52.038Z,17.60
2017-07-19T20:24:21.082Z,17.80
2017-07-19T20:26:50.817Z,15.53
2017-07-19T20:29:19.792Z,17.47
2017-07-19T20:31:48.766Z,17.07
2017-07-19T20:34:18.671Z,15.43
2017-07-19T20:36:47.633Z,18.13
2017-07-19T20:39:16.621Z,17.37
2017-07-19T20:41:45.587Z,16.90
2017-07-19T20:44:14.583Z,14.27
2017-07-19T20:46:43.543Z,15.27
2017-07-19T20:49:13.262Z,14.10
2017-07-19T20:51:43.011Z,16.30
2017-07-19T20:54:11.974Z,15.20
2017-07-19T20:56:41.062Z,14.03
2017-07-19T20:59:10.069Z,12.67
2017-07-19T21:01:39.062Z,13.57
2017-07-19T21:04:08.013Z,15.53
2017-07-19T21:06:37.001Z,13.60
2017-07-19T21:09:05.963Z,14.80
2017-07-19T21:11:36.281Z,14.27
2017-07-19T21:14:08.791Z,15.57
2017-07-19T21:16:37.782Z,16.17
2017-07-19T21:19:06.740Z,18.53
2017-07-19T21:21:35.790Z,19.80
2017-07-19T21:24:04.779Z,15.03
2017-07-19T21:26:33.770Z,17.07
2017-07-19T21:29:03.506Z,19.73
2017-07-19T21:31:32.504Z,19.17
2017-07-19T21:34:01.485Z,17.80
2017-07-19T21:36:30.505Z,18.37
2017-07-19T21:38:59.474Z,17.43
2017-07-19T21:41:28.472Z,18.60
2017-07-19T21:43:57.420Z,21.67
2017-07-19T21:46:26.435Z,22.83
2017-07-19T21:48:56.154Z,21.03
2017-07-19T21:51:25.134Z,20.80
2017-07-19T21:53:54.137Z,21.40
2017-07-19T21:56:23.100Z,19.37
2017-07-19T21:58:52.878Z,22.63
2017-07-19T22:01:21.834Z,21.93
2017-07-19T22:03:50.959Z,23.97
2017-07-19T22:06:19.925Z,23.33
2017-07-19T22:08:48.913Z,21.30
2017-07-19T22:11:17.890Z,19.60
2017-07-19T22:13:47.650Z,22.03
2017-07-19T22:16:16.694Z,23.03
2017-07-19T22:18:46.424Z,23.80
2017-07-19T22:21:15.424Z,24.93
2017-07-19T22:23:44.389Z,23.83
2017-07-19T22:26:14.111Z,23.37
2017-07-19T22:28:43.077Z,25.10
2017-07-19T22:31:13.113Z,26.17
2017-07-19T22:33:42.096Z,25.67
2017-07-19T22:36:11.846Z,25.13
2017-07-19T22:38:40.862Z,23.43
2017-07-19T22:41:09.821Z,23.40
2017-07-19T22:43:38.808Z,23.33
2017-07-19T22:46:07.879Z,23.90
2017-07-19T22:48:37.641Z,23.63
2017-07-19T22:51:07.449Z,23.40
2017-07-19T22:53:36.413Z,24.50
2017-07-19T22:56:05.407Z,26.37
2017-07-19T22:58:34.353Z,25.90
2017-07-19T23:01:03.346Z,26.13
2017-07-19T23:03:32.319Z,30.77
2017-07-19T23:06:01.414Z,35.67
2017-07-19T23:08:30.370Z,37.73
2017-07-19T23:10:59.337Z,37.80
2017-07-19T23:13:29.122Z,42.03
2017-07-19T23:15:58.106Z,42.40
2017-07-19T23:18:27.061Z,40.77
2017-07-19T23:20:56.042Z,37.23
2017-07-19T23:23:25.029Z,38.73
2017-07-19T23:25:54.858Z,35.73
2017-07-19T23:28:23.845Z,35.43
2017-07-19T23:30:52.822Z,34.60
2017-07-19T23:33:21.849Z,31.60
2017-07-19T23:35:50.901Z,31.00
2017-07-19T23:38:19.869Z,29.07
2017-07-19T23:40:48.853Z,27.77
2017-07-19T23:43:17.814Z,27.97
2017-07-19T23:45:46.870Z,27.57
2017-07-19T23:48:16.630Z,27.73
2017-07-19T23:50:45.653Z,29.20
2017-07-19T23:53:14.624Z,28.27
2017-07-19T23:55:43.596Z,27.77
2017-07-19T23:58:12.594Z,25.93
